sensor_id;sensor_type;location;lat;lon;timestamp;temperature;humidity
69393;SHT31;56582;44.624;20.378;2023-02-28T00:01:30;2.36;89.29
69393;SHT31;56582;44.624;20.378;2023-02-28T00:03:56;2.52;88.43
69393;SHT31;56582;44.624;20.378;2023-02-28T00:06:21;2.40;88.64
69393;SHT31;56582;44.624;20.378;2023-02-28T00:08:47;2.32;88.90
69393;SHT31;56582;44.624;20.378;2023-02-28T00:11:14;2.26;88.98
69393;SHT31;56582;44.624;20.378;2023-02-28T00:13:42;2.37;89.03
69393;SHT31;56582;44.624;20.378;2023-02-28T00:16:11;2.08;89.25
69393;SHT31;56582;44.624;20.378;2023-02-28T00:18:38;1.95;89.76
69393;SHT31;56582;44.624;20.378;2023-02-28T00:21:04;1.99;90.12
69393;SHT31;56582;44.624;20.378;2023-02-28T00:23:30;2.29;89.25
69393;SHT31;56582;44.624;20.378;2023-02-28T00:25:55;1.86;89.75
69393;SHT31;56582;44.624;20.378;2023-02-28T00:28:21;1.61;90.37
69393;SHT31;56582;44.624;20.378;2023-02-28T00:30:47;1.78;91.07
69393;SHT31;56582;44.624;20.378;2023-02-28T00:33:12;1.99;90.50
69393;SHT31;56582;44.624;20.378;2023-02-28T00:35:38;1.47;90.64
69393;SHT31;56582;44.624;20.378;2023-02-28T00:38:03;1.39;91.89
69393;SHT31;56582;44.624;20.378;2023-02-28T00:40:29;1.32;92.04
69393;SHT31;56582;44.624;20.378;2023-02-28T00:42:55;1.53;92.12
69393;SHT31;56582;44.624;20.378;2023-02-28T00:45:20;1.44;91.83
69393;SHT31;56582;44.624;20.378;2023-02-28T00:47:46;1.61;91.23
69393;SHT31;56582;44.624;20.378;2023-02-28T00:50:16;1.58;91.66
69393;SHT31;56582;44.624;20.378;2023-02-28T00:52:42;1.84;91.16
69393;SHT31;56582;44.624;20.378;2023-02-28T00:55:07;1.84;90.87
69393;SHT31;56582;44.624;20.378;2023-02-28T00:57:33;1.82;90.66
69393;SHT31;56582;44.624;20.378;2023-02-28T00:59:58;1.67;90.82
69393;SHT31;56582;44.624;20.378;2023-02-28T01:02:24;1.61;91.08
69393;SHT31;56582;44.624;20.378;2023-02-28T01:04:49;1.39;91.45
69393;SHT31;56582;44.624;20.378;2023-02-28T01:07:15;1.50;91.60
69393;SHT31;56582;44.624;20.378;2023-02-28T01:09:41;1.22;92.34
69393;SHT31;56582;44.624;20.378;2023-02-28T01:12:07;1.43;92.07
69393;SHT31;56582;44.624;20.378;2023-02-28T01:14:33;1.53;91.81
69393;SHT31;56582;44.624;20.378;2023-02-28T01:17:00;1.63;91.47
69393;SHT31;56582;44.624;20.378;2023-02-28T01:19:25;1.74;91.29
69393;SHT31;56582;44.624;20.378;2023-02-28T01:21:53;1.74;90.66
69393;SHT31;56582;44.624;20.378;2023-02-28T01:24:19;1.74;90.45
69393;SHT31;56582;44.624;20.378;2023-02-28T01:26:44;1.95;90.45
69393;SHT31;56582;44.624;20.378;2023-02-28T01:29:10;1.86;90.22
69393;SHT31;56582;44.624;20.378;2023-02-28T01:31:37;1.75;90.25
69393;SHT31;56582;44.624;20.378;2023-02-28T01:34:04;1.82;90.02
69393;SHT31;56582;44.624;20.378;2023-02-28T01:36:29;1.73;90.59
69393;SHT31;56582;44.624;20.378;2023-02-28T01:38:55;1.77;90.33
69393;SHT31;56582;44.624;20.378;2023-02-28T01:41:30;1.51;91.01
69393;SHT31;56582;44.624;20.378;2023-02-28T01:44:05;1.68;91.01
69393;SHT31;56582;44.624;20.378;2023-02-28T01:46:34;1.79;90.77
69393;SHT31;56582;44.624;20.378;2023-02-28T01:49:11;1.94;90.29
69393;SHT31;56582;44.624;20.378;2023-02-28T01:51:42;2.02;89.83
69393;SHT31;56582;44.624;20.378;2023-02-28T01:54:16;1.86;90.01
69393;SHT31;56582;44.624;20.378;2023-02-28T01:56:49;1.79;89.99
69393;SHT31;56582;44.624;20.378;2023-02-28T01:59:29;1.82;90.40
69393;SHT31;56582;44.624;20.378;2023-02-28T02:01:57;1.57;90.81
69393;SHT31;56582;44.624;20.378;2023-02-28T02:04:26;1.44;91.40
69393;SHT31;56582;44.624;20.378;2023-02-28T02:06:53;1.54;91.49
69393;SHT31;56582;44.624;20.378;2023-02-28T02:09:18;1.33;92.05
69393;SHT31;56582;44.624;20.378;2023-02-28T02:11:44;1.05;92.70
69393;SHT31;56582;44.624;20.378;2023-02-28T02:14:43;1.39;92.49
69393;SHT31;56582;44.624;20.378;2023-02-28T02:17:44;1.30;92.68
69393;SHT31;56582;44.624;20.378;2023-02-28T02:42:13;0.92;94.32
69393;SHT31;56582;44.624;20.378;2023-02-28T02:44:43;0.82;94.34
69393;SHT31;56582;44.624;20.378;2023-02-28T02:47:13;0.75;94.59
69393;SHT31;56582;44.624;20.378;2023-02-28T02:49:44;0.93;94.48
69393;SHT31;56582;44.624;20.378;2023-02-28T02:52:14;1.10;94.36
69393;SHT31;56582;44.624;20.378;2023-02-28T02:54:43;1.16;94.14
69393;SHT31;56582;44.624;20.378;2023-02-28T02:57:15;1.32;93.85
69393;SHT31;56582;44.624;20.378;2023-02-28T02:59:43;1.17;93.85
69393;SHT31;56582;44.624;20.378;2023-02-28T03:02:12;1.43;93.36
69393;SHT31;56582;44.624;20.378;2023-02-28T03:04:52;1.46;93.21
69393;SHT31;56582;44.624;20.378;2023-02-28T03:07:19;1.51;92.79
69393;SHT31;56582;44.624;20.378;2023-02-28T03:09:52;1.26;93.00
69393;SHT31;56582;44.624;20.378;2023-02-28T03:12:18;1.36;92.87
69393;SHT31;56582;44.624;20.378;2023-02-28T03:23:17;1.19;93.45
69393;SHT31;56582;44.624;20.378;2023-02-28T03:26:07;1.20;93.46
69393;SHT31;56582;44.624;20.378;2023-02-28T03:28:41;1.19;93.54
69393;SHT31;56582;44.624;20.378;2023-02-28T03:31:21;1.26;93.37
69393;SHT31;56582;44.624;20.378;2023-02-28T03:33:58;1.17;93.42
69393;SHT31;56582;44.624;20.378;2023-02-28T03:36:31;1.57;92.81
69393;SHT31;56582;44.624;20.378;2023-02-28T03:39:05;1.71;92.47
69393;SHT31;56582;44.624;20.378;2023-02-28T03:41:59;1.89;91.90
69393;SHT31;56582;44.624;20.378;2023-02-28T03:47:01;1.89;90.87
69393;SHT31;56582;44.624;20.378;2023-02-28T03:49:37;1.53;91.42
69393;SHT31;56582;44.624;20.378;2023-02-28T03:52:06;1.48;91.81
69393;SHT31;56582;44.624;20.378;2023-02-28T03:54:36;1.40;91.86
69393;SHT31;56582;44.624;20.378;2023-02-28T03:57:12;1.65;91.78
69393;SHT31;56582;44.624;20.378;2023-02-28T03:59:47;1.68;91.56
69393;SHT31;56582;44.624;20.378;2023-02-28T04:02:13;1.70;91.46
69393;SHT31;56582;44.624;20.378;2023-02-28T04:04:39;1.82;91.54
69393;SHT31;56582;44.624;20.378;2023-02-28T04:07:13;1.71;91.47
69393;SHT31;56582;44.624;20.378;2023-02-28T04:09:39;1.36;92.09
69393;SHT31;56582;44.624;20.378;2023-02-28T04:12:05;1.37;92.34
69393;SHT31;56582;44.624;20.378;2023-02-28T04:14:30;1.20;92.86
69393;SHT31;56582;44.624;20.378;2023-02-28T04:16:56;1.67;93.95
69393;SHT31;56582;44.624;20.378;2023-02-28T04:19:21;2.19;95.52
69393;SHT31;56582;44.624;20.378;2023-02-28T04:21:51;2.16;96.29
69393;SHT31;56582;44.624;20.378;2023-02-28T04:24:19;1.91;96.62
69393;SHT31;56582;44.624;20.378;2023-02-28T04:26:47;1.40;95.96
69393;SHT31;56582;44.624;20.378;2023-02-28T04:29:18;1.29;95.54
69393;SHT31;56582;44.624;20.378;2023-02-28T04:31:44;1.35;95.20
69393;SHT31;56582;44.624;20.378;2023-02-28T04:34:10;1.61;94.27
69393;SHT31;56582;44.624;20.378;2023-02-28T04:36:35;1.68;93.67
69393;SHT31;56582;44.624;20.378;2023-02-28T04:39:00;1.61;93.13
69393;SHT31;56582;44.624;20.378;2023-02-28T04:41:26;1.36;93.59
69393;SHT31;56582;44.624;20.378;2023-02-28T04:43:52;1.20;93.99
69393;SHT31;56582;44.624;20.378;2023-02-28T04:46:18;1.40;93.95
69393;SHT31;56582;44.624;20.378;2023-02-28T04:48:44;1.58;93.51
69393;SHT31;56582;44.624;20.378;2023-02-28T04:51:11;1.44;93.45
69393;SHT31;56582;44.624;20.378;2023-02-28T04:53:38;1.43;93.33
69393;SHT31;56582;44.624;20.378;2023-02-28T04:56:04;1.64;93.04
69393;SHT31;56582;44.624;20.378;2023-02-28T04:58:31;1.56;92.91
69393;SHT31;56582;44.624;20.378;2023-02-28T05:01:19;1.46;92.90
69393;SHT31;56582;44.624;20.378;2023-02-28T05:03:44;1.44;92.98
69393;SHT31;56582;44.624;20.378;2023-02-28T05:06:11;1.44;93.01
69393;SHT31;56582;44.624;20.378;2023-02-28T05:08:37;1.44;92.96
69393;SHT31;56582;44.624;20.378;2023-02-28T05:11:03;1.36;93.23
69393;SHT31;56582;44.624;20.378;2023-02-28T05:13:29;1.42;93.34
69393;SHT31;56582;44.624;20.378;2023-02-28T05:15:55;1.57;93.16
69393;SHT31;56582;44.624;20.378;2023-02-28T05:18:21;1.50;92.82
69393;SHT31;56582;44.624;20.378;2023-02-28T05:20:46;1.35;92.98
69393;SHT31;56582;44.624;20.378;2023-02-28T05:23:13;1.42;93.07
69393;SHT31;56582;44.624;20.378;2023-02-28T05:25:39;1.60;92.48
69393;SHT31;56582;44.624;20.378;2023-02-28T05:28:05;1.68;92.05
69393;SHT31;56582;44.624;20.378;2023-02-28T05:30:30;1.78;93.20
69393;SHT31;56582;44.624;20.378;2023-02-28T05:32:57;1.63;92.97
69393;SHT31;56582;44.624;20.378;2023-02-28T05:35:22;1.73;92.42
69393;SHT31;56582;44.624;20.378;2023-02-28T05:37:48;1.73;91.91
69393;SHT31;56582;44.624;20.378;2023-02-28T05:40:13;1.77;92.05
69393;SHT31;56582;44.624;20.378;2023-02-28T05:42:40;1.65;91.46
69393;SHT31;56582;44.624;20.378;2023-02-28T05:45:06;1.97;91.57
69393;SHT31;56582;44.624;20.378;2023-02-28T05:47:33;1.61;92.15
69393;SHT31;56582;44.624;20.378;2023-02-28T05:49:58;1.64;92.15
69393;SHT31;56582;44.624;20.378;2023-02-28T05:52:23;1.64;92.17
69393;SHT31;56582;44.624;20.378;2023-02-28T05:54:49;1.42;92.62
69393;SHT31;56582;44.624;20.378;2023-02-28T05:57:15;1.30;92.97
69393;SHT31;56582;44.624;20.378;2023-02-28T05:59:40;1.39;93.21
69393;SHT31;56582;44.624;20.378;2023-02-28T06:02:11;1.29;93.45
69393;SHT31;56582;44.624;20.378;2023-02-28T06:04:37;1.68;93.24
69393;SHT31;56582;44.624;20.378;2023-02-28T06:07:02;1.77;92.39
69393;SHT31;56582;44.624;20.378;2023-02-28T06:09:28;1.79;92.34
69393;SHT31;56582;44.624;20.378;2023-02-28T06:11:54;1.68;92.47
69393;SHT31;56582;44.624;20.378;2023-02-28T06:14:20;1.73;91.97
69393;SHT31;56582;44.624;20.378;2023-02-28T06:16:46;1.75;92.34
69393;SHT31;56582;44.624;20.378;2023-02-28T06:19:11;1.81;92.08
69393;SHT31;56582;44.624;20.378;2023-02-28T06:21:38;2.01;91.63
69393;SHT31;56582;44.624;20.378;2023-02-28T06:24:04;1.74;91.59
69393;SHT31;56582;44.624;20.378;2023-02-28T06:26:30;1.78;92.25
69393;SHT31;56582;44.624;20.378;2023-02-28T06:28:56;1.95;91.67
69393;SHT31;56582;44.624;20.378;2023-02-28T06:31:21;2.12;90.87
69393;SHT31;56582;44.624;20.378;2023-02-28T06:33:48;2.04;91.26
69393;SHT31;56582;44.624;20.378;2023-02-28T06:36:15;2.16;90.62
69393;SHT31;56582;44.624;20.378;2023-02-28T06:38:41;2.04;90.35
69393;SHT31;56582;44.624;20.378;2023-02-28T06:41:08;1.91;91.22
69393;SHT31;56582;44.624;20.378;2023-02-28T06:43:36;1.74;91.96
69393;SHT31;56582;44.624;20.378;2023-02-28T06:46:05;1.57;92.44
69393;SHT31;56582;44.624;20.378;2023-02-28T06:48:31;1.64;92.06
69393;SHT31;56582;44.624;20.378;2023-02-28T06:51:07;1.50;92.79
69393;SHT31;56582;44.624;20.378;2023-02-28T06:53:33;1.58;92.12
69393;SHT31;56582;44.624;20.378;2023-02-28T06:55:59;1.48;93.21
69393;SHT31;56582;44.624;20.378;2023-02-28T06:58:25;1.35;93.59
69393;SHT31;56582;44.624;20.378;2023-02-28T07:00:51;1.57;93.57
69393;SHT31;56582;44.624;20.378;2023-02-28T07:03:18;1.61;93.12
69393;SHT31;56582;44.624;20.378;2023-02-28T07:05:44;1.71;92.83
69393;SHT31;56582;44.624;20.378;2023-02-28T07:08:10;1.63;93.04
69393;SHT31;56582;44.624;20.378;2023-02-28T07:10:38;1.79;92.13
69393;SHT31;56582;44.624;20.378;2023-02-28T07:13:05;1.53;92.46
69393;SHT31;56582;44.624;20.378;2023-02-28T07:15:31;1.73;92.66
69393;SHT31;56582;44.624;20.378;2023-02-28T07:17:56;1.63;92.47
69393;SHT31;56582;44.624;20.378;2023-02-28T07:20:23;1.82;92.52
69393;SHT31;56582;44.624;20.378;2023-02-28T07:22:49;1.98;92.36
69393;SHT31;56582;44.624;20.378;2023-02-28T07:25:21;2.16;91.94
69393;SHT31;56582;44.624;20.378;2023-02-28T07:27:47;2.32;91.67
69393;SHT31;56582;44.624;20.378;2023-02-28T07:30:12;2.15;91.53
69393;SHT31;56582;44.624;20.378;2023-02-28T07:32:38;2.40;90.92
69393;SHT31;56582;44.624;20.378;2023-02-28T07:35:04;2.36;90.94
69393;SHT31;56582;44.624;20.378;2023-02-28T07:37:29;2.47;90.60
69393;SHT31;56582;44.624;20.378;2023-02-28T07:39:57;2.54;90.18
69393;SHT31;56582;44.624;20.378;2023-02-28T07:42:22;2.54;90.32
69393;SHT31;56582;44.624;20.378;2023-02-28T07:44:47;2.63;90.06
69393;SHT31;56582;44.624;20.378;2023-02-28T07:47:13;2.68;89.73
69393;SHT31;56582;44.624;20.378;2023-02-28T07:49:38;2.70;89.69
69393;SHT31;56582;44.624;20.378;2023-02-28T07:52:05;2.71;89.49
69393;SHT31;56582;44.624;20.378;2023-02-28T07:54:31;2.71;89.47
69393;SHT31;56582;44.624;20.378;2023-02-28T07:56:57;2.74;89.12
69393;SHT31;56582;44.624;20.378;2023-02-28T07:59:22;2.85;88.62
69393;SHT31;56582;44.624;20.378;2023-02-28T08:01:48;3.00;87.62
69393;SHT31;56582;44.624;20.378;2023-02-28T08:04:16;3.01;87.98
69393;SHT31;56582;44.624;20.378;2023-02-28T08:06:42;2.98;87.74
69393;SHT31;56582;44.624;20.378;2023-02-28T08:09:07;3.08;87.86
69393;SHT31;56582;44.624;20.378;2023-02-28T08:11:33;2.95;87.72
69393;SHT31;56582;44.624;20.378;2023-02-28T08:13:58;2.87;88.75
69393;SHT31;56582;44.624;20.378;2023-02-28T08:16:24;3.00;88.77
69393;SHT31;56582;44.624;20.378;2023-02-28T08:18:51;3.05;88.42
69393;SHT31;56582;44.624;20.378;2023-02-28T08:21:17;3.22;88.29
69393;SHT31;56582;44.624;20.378;2023-02-28T08:23:42;3.35;88.02
69393;SHT31;56582;44.624;20.378;2023-02-28T08:26:08;3.35;86.94
69393;SHT31;56582;44.624;20.378;2023-02-28T08:28:34;3.44;86.48
69393;SHT31;56582;44.624;20.378;2023-02-28T08:30:59;3.31;86.48
69393;SHT31;56582;44.624;20.378;2023-02-28T08:33:26;3.14;87.38
69393;SHT31;56582;44.624;20.378;2023-02-28T08:35:53;3.15;87.78
69393;SHT31;56582;44.624;20.378;2023-02-28T08:38:19;3.50;87.30
69393;SHT31;56582;44.624;20.378;2023-02-28T08:40:44;3.62;86.77
69393;SHT31;56582;44.624;20.378;2023-02-28T08:43:10;3.52;86.54
69393;SHT31;56582;44.624;20.378;2023-02-28T08:45:35;3.39;86.55
69393;SHT31;56582;44.624;20.378;2023-02-28T08:48:01;3.25;87.38
69393;SHT31;56582;44.624;20.378;2023-02-28T08:50:26;3.28;87.06
69393;SHT31;56582;44.624;20.378;2023-02-28T08:52:52;3.46;85.97
69393;SHT31;56582;44.624;20.378;2023-02-28T08:55:17;3.39;85.40
69393;SHT31;56582;44.624;20.378;2023-02-28T08:57:43;3.55;84.85
69393;SHT31;56582;44.624;20.378;2023-02-28T09:00:09;3.38;85.64
69393;SHT31;56582;44.624;20.378;2023-02-28T09:02:35;3.63;85.35
69393;SHT31;56582;44.624;20.378;2023-02-28T09:05:03;3.46;85.54
69393;SHT31;56582;44.624;20.378;2023-02-28T09:07:28;3.38;87.15
69393;SHT31;56582;44.624;20.378;2023-02-28T09:09:54;3.39;86.56
69393;SHT31;56582;44.624;20.378;2023-02-28T09:12:23;3.43;86.51
69393;SHT31;56582;44.624;20.378;2023-02-28T09:14:49;3.50;86.86
69393;SHT31;56582;44.624;20.378;2023-02-28T09:17:15;3.60;86.93
69393;SHT31;56582;44.624;20.378;2023-02-28T09:19:40;3.66;86.40
69393;SHT31;56582;44.624;20.378;2023-02-28T09:22:06;3.49;86.85
69393;SHT31;56582;44.624;20.378;2023-02-28T09:24:31;3.71;86.30
69393;SHT31;56582;44.624;20.378;2023-02-28T09:26:57;3.52;86.43
69393;SHT31;56582;44.624;20.378;2023-02-28T09:29:22;3.43;86.71
69393;SHT31;56582;44.624;20.378;2023-02-28T09:31:48;3.62;86.07
69393;SHT31;56582;44.624;20.378;2023-02-28T09:34:13;3.53;85.96
69393;SHT31;56582;44.624;20.378;2023-02-28T09:36:39;3.33;86.25
69393;SHT31;56582;44.624;20.378;2023-02-28T09:39:04;3.38;85.98
69393;SHT31;56582;44.624;20.378;2023-02-28T09:41:37;3.56;86.18
69393;SHT31;56582;44.624;20.378;2023-02-28T09:44:07;3.62;86.12
69393;SHT31;56582;44.624;20.378;2023-02-28T09:46:40;3.55;85.47
69393;SHT31;56582;44.624;20.378;2023-02-28T09:49:42;3.89;85.80
69393;SHT31;56582;44.624;20.378;2023-02-28T09:52:12;3.71;84.73
69393;SHT31;56582;44.624;20.378;2023-02-28T09:54:39;3.38;85.27
69393;SHT31;56582;44.624;20.378;2023-02-28T09:57:16;3.50;85.13
69393;SHT31;56582;44.624;20.378;2023-02-28T10:00:18;3.58;85.71
69393;SHT31;56582;44.624;20.378;2023-02-28T10:03:29;3.29;86.01
69393;SHT31;56582;44.624;20.378;2023-02-28T10:05:59;3.55;85.12
69393;SHT31;56582;44.624;20.378;2023-02-28T10:08:31;3.59;85.51
69393;SHT31;56582;44.624;20.378;2023-02-28T10:11:01;3.49;85.26
69393;SHT31;56582;44.624;20.378;2023-02-28T10:13:51;3.74;84.40
69393;SHT31;56582;44.624;20.378;2023-02-28T10:16:31;3.62;85.57
69393;SHT31;56582;44.624;20.378;2023-02-28T10:19:09;3.49;86.08
69393;SHT31;56582;44.624;20.378;2023-02-28T10:21:42;3.46;86.48
69393;SHT31;56582;44.624;20.378;2023-02-28T10:24:35;3.53;87.24
69393;SHT31;56582;44.624;20.378;2023-02-28T10:27:22;3.67;86.68
69393;SHT31;56582;44.624;20.378;2023-02-28T10:29:53;3.67;86.22
69393;SHT31;56582;44.624;20.378;2023-02-28T10:32:39;3.73;85.74
69393;SHT31;56582;44.624;20.378;2023-02-28T10:37:46;3.73;85.66
69393;SHT31;56582;44.624;20.378;2023-02-28T10:42:58;3.84;85.00
69393;SHT31;56582;44.624;20.378;2023-02-28T10:45:25;3.89;84.80
69393;SHT31;56582;44.624;20.378;2023-02-28T10:48:02;3.67;85.28
69393;SHT31;56582;44.624;20.378;2023-02-28T10:55:35;3.19;86.71
69393;SHT31;56582;44.624;20.378;2023-02-28T10:58:01;2.98;87.28
69393;SHT31;56582;44.624;20.378;2023-02-28T11:00:33;3.26;86.90
69393;SHT31;56582;44.624;20.378;2023-02-28T11:02:59;3.64;85.66
69393;SHT31;56582;44.624;20.378;2023-02-28T11:08:10;3.29;86.40
69393;SHT31;56582;44.624;20.378;2023-02-28T11:10:38;3.11;87.03
69393;SHT31;56582;44.624;20.378;2023-02-28T11:13:05;3.07;87.82
69393;SHT31;56582;44.624;20.378;2023-02-28T11:15:33;3.29;87.28
69393;SHT31;56582;44.624;20.378;2023-02-28T11:18:03;3.38;87.05
69393;SHT31;56582;44.624;20.378;2023-02-28T11:20:33;3.28;86.56
69393;SHT31;56582;44.624;20.378;2023-02-28T11:23:01;3.33;87.00
69393;SHT31;56582;44.624;20.378;2023-02-28T11:25:30;3.36;87.52
69393;SHT31;56582;44.624;20.378;2023-02-28T11:28:24;3.16;87.78
69393;SHT31;56582;44.624;20.378;2023-02-28T11:31:05;3.32;87.36
69393;SHT31;56582;44.624;20.378;2023-02-28T11:33:41;3.26;86.84
69393;SHT31;56582;44.624;20.378;2023-02-28T11:36:13;3.44;86.41
69393;SHT31;56582;44.624;20.378;2023-02-28T11:38:40;3.19;86.55
69393;SHT31;56582;44.624;20.378;2023-02-28T11:41:21;3.05;87.61
69393;SHT31;56582;44.624;20.378;2023-02-28T11:44:06;3.11;87.93
69393;SHT31;56582;44.624;20.378;2023-02-28T11:47:06;3.02;88.26
69393;SHT31;56582;44.624;20.378;2023-02-28T12:09:02;3.44;87.19
69393;SHT31;56582;44.624;20.378;2023-02-28T12:19:25;3.28;87.34
69393;SHT31;56582;44.624;20.378;2023-02-28T12:27:33;3.38;87.47
69393;SHT31;56582;44.624;20.378;2023-02-28T12:30:16;3.83;86.63
69393;SHT31;56582;44.624;20.378;2023-02-28T12:32:49;3.62;85.29
69393;SHT31;56582;44.624;20.378;2023-02-28T12:35:21;3.40;85.49
69393;SHT31;56582;44.624;20.378;2023-02-28T12:37:55;3.11;87.15
69393;SHT31;56582;44.624;20.378;2023-02-28T12:40:23;2.95;88.17
69393;SHT31;56582;44.624;20.378;2023-02-28T12:42:53;2.91;88.82
69393;SHT31;56582;44.624;20.378;2023-02-28T12:45:26;3.04;88.76
69393;SHT31;56582;44.624;20.378;2023-02-28T12:47:57;3.25;88.61
69393;SHT31;56582;44.624;20.378;2023-02-28T12:50:26;3.15;88.88
69393;SHT31;56582;44.624;20.378;2023-02-28T12:53:13;3.21;88.40
69393;SHT31;56582;44.624;20.378;2023-02-28T13:03:44;2.71;90.13
69393;SHT31;56582;44.624;20.378;2023-02-28T13:09:11;2.65;90.37
69393;SHT31;56582;44.624;20.378;2023-02-28T13:14:19;2.71;91.23
69393;SHT31;56582;44.624;20.378;2023-02-28T13:19:27;2.84;90.87
69393;SHT31;56582;44.624;20.378;2023-02-28T13:21:55;2.93;90.25
69393;SHT31;56582;44.624;20.378;2023-02-28T13:24:46;2.95;90.19
69393;SHT31;56582;44.624;20.378;2023-02-28T13:29:44;2.90;90.57
69393;SHT31;56582;44.624;20.378;2023-02-28T13:34:40;3.26;89.03
69393;SHT31;56582;44.624;20.378;2023-02-28T13:47:51;2.81;91.02
69393;SHT31;56582;44.624;20.378;2023-02-28T14:01:45;2.58;91.41
69393;SHT31;56582;44.624;20.378;2023-02-28T14:06:48;2.50;91.98
69393;SHT31;56582;44.624;20.378;2023-02-28T14:09:21;2.26;92.49
69393;SHT31;56582;44.624;20.378;2023-02-28T14:11:48;2.29;92.97
69393;SHT31;56582;44.624;20.378;2023-02-28T14:16:58;2.53;93.04
69393;SHT31;56582;44.624;20.378;2023-02-28T14:19:26;2.85;91.95
69393;SHT31;56582;44.624;20.378;2023-02-28T14:22:13;2.80;91.33
69393;SHT31;56582;44.624;20.378;2023-02-28T14:25:04;2.84;91.44
69393;SHT31;56582;44.624;20.378;2023-02-28T14:33:26;2.71;91.65
69393;SHT31;56582;44.624;20.378;2023-02-28T14:38:56;2.71;92.10
69393;SHT31;56582;44.624;20.378;2023-02-28T14:41:33;2.85;91.58
69393;SHT31;56582;44.624;20.378;2023-02-28T14:44:03;3.02;90.82
69393;SHT31;56582;44.624;20.378;2023-02-28T14:46:39;2.88;90.68
69393;SHT31;56582;44.624;20.378;2023-02-28T14:49:07;2.87;90.77
69393;SHT31;56582;44.624;20.378;2023-02-28T14:51:37;2.83;90.95
69393;SHT31;56582;44.624;20.378;2023-02-28T14:54:03;2.68;91.32
69393;SHT31;56582;44.624;20.378;2023-02-28T14:56:37;2.65;91.40
69393;SHT31;56582;44.624;20.378;2023-02-28T14:59:04;2.63;91.74
69393;SHT31;56582;44.624;20.378;2023-02-28T15:01:30;2.54;92.14
69393;SHT31;56582;44.624;20.378;2023-02-28T15:04:04;2.44;92.55
69393;SHT31;56582;44.624;20.378;2023-02-28T15:06:34;2.65;92.68
69393;SHT31;56582;44.624;20.378;2023-02-28T15:09:29;2.52;92.29
69393;SHT31;56582;44.624;20.378;2023-02-28T15:11:55;2.40;92.81
69393;SHT31;56582;44.624;20.378;2023-02-28T15:14:21;2.40;92.87
69393;SHT31;56582;44.624;20.378;2023-02-28T15:16:56;2.43;92.89
69393;SHT31;56582;44.624;20.378;2023-02-28T15:19:25;2.63;92.52
69393;SHT31;56582;44.624;20.378;2023-02-28T15:22:06;2.94;91.84
69393;SHT31;56582;44.624;20.378;2023-02-28T15:24:42;2.71;92.12
69393;SHT31;56582;44.624;20.378;2023-02-28T15:27:47;2.64;92.26
69393;SHT31;56582;44.624;20.378;2023-02-28T15:30:08;2.74;92.14
69393;SHT31;56582;44.624;20.378;2023-02-28T15:32:39;2.83;91.70
69393;SHT31;56582;44.624;20.378;2023-02-28T15:35:28;2.70;91.82
69393;SHT31;56582;44.624;20.378;2023-02-28T15:37:56;2.57;92.28
69393;SHT31;56582;44.624;20.378;2023-02-28T15:40:30;2.63;92.57
69393;SHT31;56582;44.624;20.378;2023-02-28T15:43:07;2.56;92.28
69393;SHT31;56582;44.624;20.378;2023-02-28T15:45:47;2.73;92.50
69393;SHT31;56582;44.624;20.378;2023-02-28T15:48:31;2.94;92.11
69393;SHT31;56582;44.624;20.378;2023-02-28T15:56:25;3.14;90.89
69393;SHT31;56582;44.624;20.378;2023-02-28T15:59:05;3.09;90.91
69393;SHT31;56582;44.624;20.378;2023-02-28T16:01:38;3.11;91.08
69393;SHT31;56582;44.624;20.378;2023-02-28T16:04:14;3.15;91.00
69393;SHT31;56582;44.624;20.378;2023-02-28T16:06:45;3.22;90.73
69393;SHT31;56582;44.624;20.378;2023-02-28T16:09:13;3.11;90.92
69393;SHT31;56582;44.624;20.378;2023-02-28T16:11:43;3.09;90.82
69393;SHT31;56582;44.624;20.378;2023-02-28T16:14:15;3.05;91.00
69393;SHT31;56582;44.624;20.378;2023-02-28T16:16:43;3.15;91.06
69393;SHT31;56582;44.624;20.378;2023-02-28T16:19:09;2.95;91.05
69393;SHT31;56582;44.624;20.378;2023-02-28T16:21:34;2.93;91.86
69393;SHT31;56582;44.624;20.378;2023-02-28T16:24:00;3.09;91.34
69393;SHT31;56582;44.624;20.378;2023-02-28T16:26:25;2.95;91.42
69393;SHT31;56582;44.624;20.378;2023-02-28T16:28:53;3.00;91.32
69393;SHT31;56582;44.624;20.378;2023-02-28T16:31:19;3.33;90.34
69393;SHT31;56582;44.624;20.378;2023-02-28T16:33:46;2.88;91.02
69393;SHT31;56582;44.624;20.378;2023-02-28T16:36:20;2.98;91.64
69393;SHT31;56582;44.624;20.378;2023-02-28T16:38:46;2.97;91.52
69393;SHT31;56582;44.624;20.378;2023-02-28T16:41:17;2.93;91.69
69393;SHT31;56582;44.624;20.378;2023-02-28T16:43:46;2.83;91.85
69393;SHT31;56582;44.624;20.378;2023-02-28T16:46:12;2.77;92.10
69393;SHT31;56582;44.624;20.378;2023-02-28T16:48:38;2.85;92.13
69393;SHT31;56582;44.624;20.378;2023-02-28T16:51:06;2.88;91.96
69393;SHT31;56582;44.624;20.378;2023-02-28T16:53:31;2.73;92.20
69393;SHT31;56582;44.624;20.378;2023-02-28T16:55:57;2.77;92.24
69393;SHT31;56582;44.624;20.378;2023-02-28T16:58:22;2.83;92.24
69393;SHT31;56582;44.624;20.378;2023-02-28T17:00:50;2.97;91.99
69393;SHT31;56582;44.624;20.378;2023-02-28T17:03:26;3.05;91.69
69393;SHT31;56582;44.624;20.378;2023-02-28T17:05:52;3.14;91.44
69393;SHT31;56582;44.624;20.378;2023-02-28T17:08:17;3.11;91.42
69393;SHT31;56582;44.624;20.378;2023-02-28T17:10:43;3.12;91.30
69393;SHT31;56582;44.624;20.378;2023-02-28T17:13:08;3.15;91.27
69393;SHT31;56582;44.624;20.378;2023-02-28T17:15:35;3.01;91.39
69393;SHT31;56582;44.624;20.378;2023-02-28T17:18:01;2.87;91.89
69393;SHT31;56582;44.624;20.378;2023-02-28T17:20:27;2.71;92.37
69393;SHT31;56582;44.624;20.378;2023-02-28T17:22:54;2.94;92.14
69393;SHT31;56582;44.624;20.378;2023-02-28T17:25:21;3.08;91.72
69393;SHT31;56582;44.624;20.378;2023-02-28T17:27:47;2.77;92.19
69393;SHT31;56582;44.624;20.378;2023-02-28T17:32:42;2.90;91.72
69393;SHT31;56582;44.624;20.378;2023-02-28T17:35:08;3.02;91.87
69393;SHT31;56582;44.624;20.378;2023-02-28T17:37:33;3.07;91.63
69393;SHT31;56582;44.624;20.378;2023-02-28T17:39:59;3.16;91.22
69393;SHT31;56582;44.624;20.378;2023-02-28T17:42:25;3.15;91.11
69393;SHT31;56582;44.624;20.378;2023-02-28T17:44:50;3.05;91.52
69393;SHT31;56582;44.624;20.378;2023-02-28T17:47:16;3.23;91.54
69393;SHT31;56582;44.624;20.378;2023-02-28T17:49:41;3.25;90.95
69393;SHT31;56582;44.624;20.378;2023-02-28T17:52:07;3.09;91.02
69393;SHT31;56582;44.624;20.378;2023-02-28T17:54:33;3.00;91.36
69393;SHT31;56582;44.624;20.378;2023-02-28T17:56:58;2.74;92.21
69393;SHT31;56582;44.624;20.378;2023-02-28T17:59:24;2.90;92.40
69393;SHT31;56582;44.624;20.378;2023-02-28T18:01:49;2.83;92.12
69393;SHT31;56582;44.624;20.378;2023-02-28T18:04:15;2.81;92.32
69393;SHT31;56582;44.624;20.378;2023-02-28T18:06:43;2.83;92.24
69393;SHT31;56582;44.624;20.378;2023-02-28T18:09:21;2.90;92.33